createdAt,value
2022-11-08T00:03:55.512Z,11.10
2022-11-08T00:11:20.956Z,11.10
2022-11-08T00:18:21.351Z,11.20
2022-11-08T00:25:21.671Z,11.40
2022-11-08T00:32:24.661Z,11.60
2022-11-08T00:39:25.638Z,11.70
2022-11-08T00:46:26.024Z,11.90
2022-11-08T00:53:26.245Z,12.00
2022-11-08T01:00:26.848Z,12.10
2022-11-08T01:07:27.291Z,12.10
2022-11-08T01:14:27.594Z,12.20
2022-11-08T01:21:29.211Z,12.20
2022-11-08T01:28:29.297Z,12.30
2022-11-08T01:35:33.699Z,12.30
2022-11-08T01:42:33.936Z,12.30
2022-11-08T01:49:45.188Z,12.40
2022-11-08T01:56:45.559Z,12.40
2022-11-08T02:03:46.916Z,12.50
2022-11-08T02:10:51.506Z,12.50
2022-11-08T02:17:52.895Z,12.50
2022-11-08T02:24:54.221Z,12.60
2022-11-08T02:31:55.733Z,12.50
2022-11-08T02:38:57.497Z,12.50
2022-11-08T02:45:59.134Z,12.30
2022-11-08T02:52:59.232Z,12.20
2022-11-08T02:59:59.482Z,12.10
2022-11-08T03:07:00.061Z,11.90
2022-11-08T03:14:00.552Z,11.80
2022-11-08T03:21:04.178Z,11.70
2022-11-08T03:28:06.393Z,11.60
2022-11-08T03:35:07.572Z,11.50
2022-11-08T03:42:07.972Z,11.50
2022-11-08T03:49:08.617Z,11.40
2022-11-08T03:56:09.181Z,11.30
2022-11-08T04:03:09.654Z,11.30
2022-11-08T04:10:11.688Z,11.20
2022-11-08T04:17:12.398Z,11.20
2022-11-08T04:24:12.927Z,11.10
2022-11-08T04:31:20.261Z,11.10
2022-11-08T04:38:21.744Z,11.00
2022-11-08T04:45:22.779Z,11.00
2022-11-08T04:52:23.056Z,10.90
2022-11-08T04:59:23.335Z,10.80
2022-11-08T05:06:29.439Z,10.70
2022-11-08T05:13:30.308Z,10.70
2022-11-08T05:20:49.173Z,10.60
2022-11-08T05:27:49.705Z,10.50
2022-11-08T05:34:50.171Z,10.50
2022-11-08T05:41:50.891Z,10.60
2022-11-08T05:48:51.316Z,10.60
2022-11-08T05:56:00.767Z,10.60
2022-11-08T06:03:05.839Z,10.60
2022-11-08T06:10:06.810Z,10.60
2022-11-08T06:17:07.628Z,10.60
2022-11-08T06:24:08.408Z,10.60
2022-11-08T06:31:08.834Z,10.60
2022-11-08T06:38:09.757Z,10.60
2022-11-08T06:45:10.414Z,10.70
2022-11-08T06:52:10.810Z,10.70
2022-11-08T06:59:11.544Z,10.80
2022-11-08T07:06:11.922Z,10.90
2022-11-08T07:13:13.754Z,11.00
2022-11-08T07:20:14.298Z,11.10
2022-11-08T07:27:14.608Z,11.10
2022-11-08T07:34:15.015Z,11.20
2022-11-08T07:41:15.211Z,11.30
2022-11-08T07:48:15.529Z,11.30
2022-11-08T07:55:16.216Z,11.40
2022-11-08T08:02:16.834Z,11.40
2022-11-08T08:09:17.110Z,11.50
2022-11-08T08:16:17.469Z,11.60
2022-11-08T08:23:18.399Z,11.70
2022-11-08T08:30:19.479Z,11.80
2022-11-08T08:37:19.951Z,12.00
2022-11-08T08:44:20.262Z,12.20
2022-11-08T08:51:20.714Z,12.40
2022-11-08T08:58:21.458Z,12.50
2022-11-08T09:05:21.466Z,12.70
2022-11-08T09:12:22.910Z,12.80
2022-11-08T09:19:22.932Z,12.90
2022-11-08T09:26:23.213Z,13.00
2022-11-08T09:33:23.740Z,13.10
2022-11-08T09:40:31.461Z,13.20
2022-11-08T09:47:43.107Z,13.20
2022-11-08T09:54:46.967Z,13.20
2022-11-08T10:01:49.258Z,13.20
2022-11-08T10:09:18.866Z,13.20
2022-11-08T10:16:47.795Z,13.30
2022-11-08T10:24:13.974Z,13.30
2022-11-08T10:31:15.109Z,13.40
2022-11-08T10:38:30.710Z,13.50
2022-11-08T10:45:30.869Z,13.60
2022-11-08T10:52:54.989Z,13.70
2022-11-08T10:59:56.910Z,13.90
2022-11-08T11:07:31.737Z,14.00
2022-11-08T11:14:32.198Z,14.10
2022-11-08T11:21:40.429Z,14.20
2022-11-08T11:29:04.580Z,14.30
2022-11-08T11:36:17.752Z,14.40
2022-11-08T11:43:43.030Z,14.50
2022-11-08T11:50:49.116Z,14.70
2022-11-08T11:58:00.324Z,14.70
2022-11-08T12:05:08.600Z,14.80
2022-11-08T12:12:51.566Z,14.90
2022-11-08T12:20:07.376Z,14.90
2022-11-08T12:27:27.835Z,15.00
2022-11-08T12:35:06.950Z,15.20
2022-11-08T12:42:24.348Z,15.40
2022-11-08T12:49:38.748Z,15.60
2022-11-08T12:56:44.739Z,15.80
2022-11-08T13:03:45.836Z,16.00
2022-11-08T13:11:07.611Z,16.00
2022-11-08T13:18:09.033Z,16.10
2022-11-08T13:25:33.637Z,16.10
2022-11-08T13:32:54.195Z,16.00
2022-11-08T13:40:12.929Z,16.00
2022-11-08T13:47:32.198Z,16.00
2022-11-08T13:54:47.324Z,15.80
2022-11-08T14:01:47.332Z,15.80
2022-11-08T14:09:03.473Z,15.70
2022-11-08T14:16:08.924Z,15.70
2022-11-08T14:23:19.020Z,15.70
2022-11-08T14:30:23.252Z,15.70
2022-11-08T14:37:26.996Z,15.70
2022-11-08T14:44:28.499Z,15.50
2022-11-08T14:51:28.799Z,15.50
2022-11-08T14:58:29.784Z,15.40
2022-11-08T15:05:40.913Z,15.40
2022-11-08T15:12:42.875Z,15.30
2022-11-08T15:19:44.824Z,15.30
2022-11-08T15:27:04.934Z,15.40
2022-11-08T15:34:05.482Z,15.70
2022-11-08T15:41:26.344Z,15.90
2022-11-08T15:48:28.899Z,16.10
2022-11-08T15:56:01.195Z,16.20
2022-11-08T16:03:01.746Z,16.20
2022-11-08T16:10:02.317Z,16.30
2022-11-08T16:17:02.882Z,16.30
2022-11-08T16:24:03.393Z,16.30
2022-11-08T16:31:10.196Z,16.30
2022-11-08T16:38:10.967Z,16.30
2022-11-08T16:45:11.759Z,16.30
2022-11-08T16:52:12.290Z,16.40
2022-11-08T16:59:12.743Z,16.40
2022-11-08T17:06:18.269Z,16.30
2022-11-08T17:13:20.007Z,16.30
2022-11-08T17:20:24.635Z,16.30
2022-11-08T17:27:27.290Z,16.20
2022-11-08T17:34:29.383Z,16.20
2022-11-08T17:41:30.172Z,16.10
2022-11-08T17:48:31.853Z,16.00
2022-11-08T17:55:32.147Z,16.00
2022-11-08T18:02:33.871Z,16.00
2022-11-08T18:09:34.569Z,15.90
2022-11-08T18:16:35.167Z,16.00
2022-11-08T18:23:36.090Z,16.00
2022-11-08T18:30:36.531Z,16.00
2022-11-08T18:37:37.335Z,16.00
2022-11-08T18:44:37.966Z,16.00
2022-11-08T18:51:38.531Z,16.10
2022-11-08T18:58:39.283Z,16.10
2022-11-08T19:05:42.352Z,16.30
2022-11-08T19:12:42.473Z,16.30
2022-11-08T19:19:44.095Z,16.30
2022-11-08T19:26:44.434Z,16.30
2022-11-08T19:33:46.201Z,16.30
2022-11-08T19:40:48.289Z,16.20
2022-11-08T19:47:50.353Z,16.20
2022-11-08T19:54:50.852Z,16.20
2022-11-08T20:01:51.338Z,16.10
2022-11-08T20:08:53.632Z,16.00
2022-11-08T20:15:53.733Z,15.80
2022-11-08T20:22:54.242Z,15.70
2022-11-08T20:29:54.697Z,15.60
2022-11-08T20:36:55.186Z,15.60
2022-11-08T20:43:57.011Z,15.60
2022-11-08T20:50:58.898Z,15.60
2022-11-08T20:57:58.965Z,15.60
2022-11-08T21:04:59.436Z,15.60
2022-11-08T21:11:59.870Z,15.70
2022-11-08T21:19:00.270Z,15.70
2022-11-08T21:26:00.579Z,15.70
2022-11-08T21:33:00.986Z,15.80
2022-11-08T21:40:01.283Z,15.80
2022-11-08T21:47:01.623Z,15.80
2022-11-08T21:54:02.114Z,15.80
2022-11-08T22:01:06.538Z,15.80
2022-11-08T22:08:06.598Z,15.80
2022-11-08T22:15:08.706Z,15.70
2022-11-08T22:22:09.277Z,15.70
2022-11-08T22:29:10.066Z,15.70
2022-11-08T22:36:11.808Z,15.60
2022-11-08T22:43:12.712Z,15.60
2022-11-08T22:50:13.234Z,15.60
2022-11-08T22:57:13.695Z,15.60
2022-11-08T23:04:14.204Z,15.60
2022-11-08T23:11:33.480Z,15.50
2022-11-08T23:18:34.026Z,15.50
2022-11-08T23:25:34.351Z,15.40
2022-11-08T23:32:35.058Z,15.30
2022-11-08T23:39:55.068Z,15.30
2022-11-08T23:47:00.947Z,15.30
2022-11-08T23:54:01.117Z,15.20
